KBPT/BPT METAR and TAF weather

Enter ICAO airport designator
Station Type Date Time Source
KBPT METAR 2019/10/18 06:53 UTC NOAA

KBPT 180653Z AUTO 04007KT 10SM CLR 16/12 A2989 RMK AO2 SLP121 T01560117


Station Type Date Time Source
KBPT Decoded METAR 2019/10/18 06:53 UTC NOAA

SOUTHEAST TEXAS RGNL AIRPORT, TX, United States (KBPT) 29-95N 094-08W 5M
Oct 18, 2019 - 02:53 AM EDT / 2019.10.18 0653 UTC
Wind: from the NE (040 degrees) at 8 MPH (7 KT):0
Visibility: 10 mile(s):0
Sky conditions: clear
Temperature: 60.1 F (15.6 C)
Dew Point: 53.1 F (11.7 C)
Relative Humidity: 77%
Pressure (altimeter): 29.89 in. Hg (1012 hPa)
ob: KBPT 180653Z AUTO 04007KT 10SM CLR 16/12 A2989 RMK AO2 SLP121 T01560117
cycle: 7

Station Type Date Time Source
KBPT TAF 2019/10/18 06:24 UTC NOAA

TAF KBPT 180522Z 1806/1906 03007KT P6SM FEW070 SCT150

Example: see airport list